Odd, WV (25902)

8:35 PM EDT on July 01, 2015 (GMT -0400)
Flat Top Lake | | Change Station
CLOSE
Current Station
Personal Weather Station
Location: Ghent, WV
Elevation: 2969 ft
Nearby Weather Stations

Elev 2969 ft 37.62 °N, 81.09 °W | Updated 12 minutes ago

Overcast
Overcast
67.5 °F
Feels Like 67.5 °F
N
0.0
Wind Variable Wind from ESE

Today
High -- | Low -- °F
--% Chance of Precip.
Yesterday
High -- | Low -- °F
Precip. -- in
6:07 AM 8:50 PM
Full, 100% visible
Pressure 29.92 in
Visibility 6.0 miles
Clouds Scattered Clouds 3700 ft
Overcast 4700 ft
Dew Point 65 °F
Humidity 93%
Rainfall 0.00 in
Snow Depth Not available.
UV 0 out of 12
Pollen 3.40 out of 12
Air Quality Not available.
Flu Activity Not available.
METAR KBKW 012351Z AUTO 22004KT 6SM -RA SCT037 OVC047 21/17 A3000 RMK AO2 RAB37 SLP132 P0000 60000 T02110167 10256 20211 53001

More Conditions Fewer Conditions

Pressure 29.92 in
Visibility 6.0 miles
Clouds Scattered Clouds 3700 ft
Overcast 4700 ft
Dew Point 65 °F
Humidity 93%
Rainfall 0.00 in
Snow Depth Not available.
UV 0 out of 12
Pollen 3.40 out of 12
Air Quality Not available.
Flu Activity Not available.
METAR KBKW 012351Z AUTO 22004KT 6SM -RA SCT037 OVC047 21/17 A3000 RMK AO2 RAB37 SLP132 P0000 60000 T02110167 10256 20211 53001

More Conditions Fewer Conditions

10-Day Weather Forecast

×

Almanac

Astronomy

Jul. 01, 2015 Rise Set
Actual Time
Civil Twilight
Nautical Twilight
Astronomical Twilight
Moon
Length of Visible Light
Length of Day
Tomorrow will be .
, % of the Moon is Illuminated

Today's Extremes

State Highs State Lows

Community

WunderPhotos

Upload Photos

1,834,355 photos uploaded!

WunderBlogs® & News

Nearby

Air Quality

  Air Quality AQ Index Pollutant
Not available.

Snow Depth

Station Depth Elevation

Earthquake Activity

City Distance Mag. Time & Date
Minimum magnitude displayed is 2.5.

Coastal Water Temperatures

Place Temperature

Stations

Nearby Weather Stations

Station Location Temp. Windchill Dew Point Humidity Wind Precip. Elev Updated Type